sensor_id;sensor_type;location;lat;lon;timestamp;pressure;altitude;pressure_sealevel;temperature;humidity
62011;BME280;47967;51.756;10.174;2024-02-23T05:04:10;97445.63;;;6.08;95.01
62011;BME280;47967;51.756;10.174;2024-02-23T05:08:13;97442.28;;;5.94;96.83
62011;BME280;47967;51.756;10.174;2024-02-23T05:12:15;97439.78;;;5.81;99.94
62011;BME280;47967;51.756;10.174;2024-02-23T05:16:18;97438.94;;;5.68;100.00
62011;BME280;47967;51.756;10.174;2024-02-23T05:20:22;97444.44;;;5.55;100.00
62011;BME280;47967;51.756;10.174;2024-02-23T05:24:24;97439.63;;;5.45;98.31
62011;BME280;47967;51.756;10.174;2024-02-23T05:28:27;97440.97;;;5.54;93.85
62011;BME280;47967;51.756;10.174;2024-02-23T05:32:30;97453.97;;;5.51;93.94
62011;BME280;47967;51.756;10.174;2024-02-23T05:36:34;97451.09;;;5.34;94.15
62011;BME280;47967;51.756;10.174;2024-02-23T05:40:36;97472.81;;;5.19;95.12
62011;BME280;47967;51.756;10.174;2024-02-23T05:44:39;97483.59;;;5.31;94.63
62011;BME280;47967;51.756;10.174;2024-02-23T05:48:42;97481.78;;;5.31;93.29
62011;BME280;47967;51.756;10.174;2024-02-23T05:52:46;97488.44;;;5.40;92.39
62011;BME280;47967;51.756;10.174;2024-02-23T05:56:48;97498.84;;;5.49;89.57
62011;BME280;47967;51.756;10.174;2024-02-23T06:00:51;97501.66;;;5.54;89.23
62011;BME280;47967;51.756;10.174;2024-02-23T06:04:54;97509.81;;;5.40;88.60
62011;BME280;47967;51.756;10.174;2024-02-23T06:08:58;97524.41;;;5.44;88.11
62011;BME280;47967;51.756;10.174;2024-02-23T06:13:01;97532.34;;;5.51;88.78
62011;BME280;47967;51.756;10.174;2024-02-23T06:17:05;97529.53;;;5.46;89.08
62011;BME280;47967;51.756;10.174;2024-02-23T06:21:11;97535.47;;;5.48;90.32
62011;BME280;47967;51.756;10.174;2024-02-23T06:25:16;97535.75;;;5.58;88.35
62011;BME280;47967;51.756;10.174;2024-02-23T06:29:19;97540.31;;;5.58;88.62
62011;BME280;47967;51.756;10.174;2024-02-23T06:33:21;97542.75;;;5.59;86.92
62011;BME280;47967;51.756;10.174;2024-02-23T06:37:24;97557.25;;;5.70;86.25
62011;BME280;47967;51.756;10.174;2024-02-23T06:41:28;97544.97;;;5.63;87.48
62011;BME280;47967;51.756;10.174;2024-02-23T06:45:30;97550.78;;;5.59;86.85
62011;BME280;47967;51.756;10.174;2024-02-23T06:49:33;97559.69;;;5.72;85.59
62011;BME280;47967;51.756;10.174;2024-02-23T06:53:35;97569.06;;;5.81;84.20
62011;BME280;47967;51.756;10.174;2024-02-23T06:57:40;97577.66;;;5.83;85.37
62011;BME280;47967;51.756;10.174;2024-02-23T07:01:49;97585.03;;;5.88;86.60
62011;BME280;47967;51.756;10.174;2024-02-23T07:05:52;97588.53;;;5.88;88.48
62011;BME280;47967;51.756;10.174;2024-02-23T07:09:55;97597.38;;;5.89;89.54
62011;BME280;47967;51.756;10.174;2024-02-23T07:13:59;97602.28;;;5.92;90.12
62011;BME280;47967;51.756;10.174;2024-02-23T07:18:01;97597.97;;;5.91;91.26
62011;BME280;47967;51.756;10.174;2024-02-23T07:22:04;97609.94;;;5.88;91.63
62011;BME280;47967;51.756;10.174;2024-02-23T07:26:06;97616.47;;;5.92;91.76
62011;BME280;47967;51.756;10.174;2024-02-23T07:30:11;97617.00;;;6.01;92.24
62011;BME280;47967;51.756;10.174;2024-02-23T07:34:14;97637.28;;;6.09;90.94
62011;BME280;47967;51.756;10.174;2024-02-23T07:38:16;97649.88;;;6.08;92.25
62011;BME280;47967;51.756;10.174;2024-02-23T07:42:20;97656.25;;;6.07;91.02
62011;BME280;47967;51.756;10.174;2024-02-23T07:46:24;97662.00;;;6.11;91.83
62011;BME280;47967;51.756;10.174;2024-02-23T07:50:29;97665.88;;;6.15;91.77
62011;BME280;47967;51.756;10.174;2024-02-23T07:54:32;97668.09;;;6.18;91.27
62011;BME280;47967;51.756;10.174;2024-02-23T07:58:34;97664.28;;;6.26;90.99
62011;BME280;47967;51.756;10.174;2024-02-23T08:02:38;97680.44;;;6.38;91.41
62011;BME280;47967;51.756;10.174;2024-02-23T08:06:42;97685.13;;;6.43;90.47
62011;BME280;47967;51.756;10.174;2024-02-23T08:10:44;97693.88;;;6.50;90.47
62011;BME280;47967;51.756;10.174;2024-02-23T08:14:47;97690.91;;;6.58;90.98
62011;BME280;47967;51.756;10.174;2024-02-23T08:18:53;97696.41;;;6.63;89.96
62011;BME280;47967;51.756;10.174;2024-02-23T08:22:55;97699.34;;;6.73;88.41
62011;BME280;47967;51.756;10.174;2024-02-23T08:26:58;97703.16;;;6.66;87.76
62011;BME280;47967;51.756;10.174;2024-02-23T08:31:00;97690.94;;;6.70;86.77
62011;BME280;47967;51.756;10.174;2024-02-23T08:35:04;97679.31;;;6.76;87.38
62011;BME280;47967;51.756;10.174;2024-02-23T08:39:07;97688.00;;;6.90;85.95
62011;BME280;47967;51.756;10.174;2024-02-23T08:43:10;97699.31;;;6.92;83.82
62011;BME280;47967;51.756;10.174;2024-02-23T08:47:12;97683.38;;;6.67;83.74
62011;BME280;47967;51.756;10.174;2024-02-23T08:51:16;97702.19;;;6.60;84.03
62011;BME280;47967;51.756;10.174;2024-02-23T08:55:19;97689.09;;;6.70;85.41
62011;BME280;47967;51.756;10.174;2024-02-23T08:59:22;97699.50;;;6.79;84.45
62011;BME280;47967;51.756;10.174;2024-02-23T09:03:25;97696.59;;;6.80;82.65
62011;BME280;47967;51.756;10.174;2024-02-23T09:07:29;97692.53;;;6.89;84.84
62011;BME280;47967;51.756;10.174;2024-02-23T09:11:32;97690.50;;;7.03;82.56
62011;BME280;47967;51.756;10.174;2024-02-23T09:15:35;97694.78;;;6.93;78.95
62011;BME280;47967;51.756;10.174;2024-02-23T09:19:38;97703.13;;;6.84;78.47
62011;BME280;47967;51.756;10.174;2024-02-23T09:23:41;97712.56;;;6.87;79.13
62011;BME280;47967;51.756;10.174;2024-02-23T09:27:44;97721.41;;;7.48;76.17
62011;BME280;47967;51.756;10.174;2024-02-23T09:31:46;97714.19;;;7.73;75.88
62011;BME280;47967;51.756;10.174;2024-02-23T09:35:49;97707.88;;;7.67;72.33
62011;BME280;47967;51.756;10.174;2024-02-23T09:39:53;97704.56;;;7.29;75.89
62011;BME280;47967;51.756;10.174;2024-02-23T09:43:56;97692.97;;;7.17;73.91
62011;BME280;47967;51.756;10.174;2024-02-23T09:48:00;97695.34;;;7.25;74.24
62011;BME280;47967;51.756;10.174;2024-02-23T09:52:04;97692.22;;;7.64;75.08
62011;BME280;47967;51.756;10.174;2024-02-23T09:56:08;97690.59;;;7.75;74.11
62011;BME280;47967;51.756;10.174;2024-02-23T10:00:11;97686.28;;;7.85;72.58
62011;BME280;47967;51.756;10.174;2024-02-23T10:04:14;97688.38;;;7.83;73.79
62011;BME280;47967;51.756;10.174;2024-02-23T10:08:17;97686.69;;;8.30;73.56
62011;BME280;47967;51.756;10.174;2024-02-23T10:12:22;97688.13;;;8.73;71.62
62011;BME280;47967;51.756;10.174;2024-02-23T10:16:24;97683.22;;;8.99;68.26
62011;BME280;47967;51.756;10.174;2024-02-23T10:20:27;97673.69;;;8.91;69.11
62011;BME280;47967;51.756;10.174;2024-02-23T10:24:29;97685.88;;;8.82;69.74
62011;BME280;47967;51.756;10.174;2024-02-23T10:28:33;97677.47;;;8.78;66.66
62011;BME280;47967;51.756;10.174;2024-02-23T10:32:36;97672.63;;;8.63;64.98
62011;BME280;47967;51.756;10.174;2024-02-23T10:36:41;97690.16;;;8.54;66.64
62011;BME280;47967;51.756;10.174;2024-02-23T10:40:43;97680.94;;;8.62;65.99
62011;BME280;47967;51.756;10.174;2024-02-23T10:44:48;97682.34;;;8.53;63.59
62011;BME280;47967;51.756;10.174;2024-02-23T10:48:51;97696.00;;;8.63;63.88
62011;BME280;47967;51.756;10.174;2024-02-23T10:52:56;97707.66;;;8.69;65.01
62011;BME280;47967;51.756;10.174;2024-02-23T10:56:59;97718.31;;;8.63;63.25
62011;BME280;47967;51.756;10.174;2024-02-23T11:01:04;97721.84;;;8.40;61.66
62011;BME280;47967;51.756;10.174;2024-02-23T11:05:08;97725.50;;;8.10;61.10
62011;BME280;47967;51.756;10.174;2024-02-23T11:09:14;97719.03;;;8.59;61.77
62011;BME280;47967;51.756;10.174;2024-02-23T11:13:16;97728.63;;;8.31;62.24
62011;BME280;47967;51.756;10.174;2024-02-23T11:17:21;97728.38;;;8.44;61.57
62011;BME280;47967;51.756;10.174;2024-02-23T11:21:24;97729.66;;;8.65;61.42
62011;BME280;47967;51.756;10.174;2024-02-23T11:25:35;97728.09;;;8.70;60.85
62011;BME280;47967;51.756;10.174;2024-02-23T11:29:38;97730.44;;;8.78;62.22
62011;BME280;47967;51.756;10.174;2024-02-23T11:33:48;97738.94;;;8.87;63.31
62011;BME280;47967;51.756;10.174;2024-02-23T11:37:52;97729.38;;;8.79;65.16
62011;BME280;47967;51.756;10.174;2024-02-23T11:41:58;97725.94;;;8.31;60.76
62011;BME280;47967;51.756;10.174;2024-02-23T11:46:01;97723.03;;;8.21;65.33
62011;BME280;47967;51.756;10.174;2024-02-23T11:50:05;97718.16;;;8.06;67.77
62011;BME280;47967;51.756;10.174;2024-02-23T11:54:08;97708.47;;;8.05;69.66
62011;BME280;47967;51.756;10.174;2024-02-23T11:58:11;97700.38;;;8.16;69.80
62011;BME280;47967;51.756;10.174;2024-02-23T12:02:19;97690.06;;;8.37;64.26
62011;BME280;47967;51.756;10.174;2024-02-23T12:06:23;97720.09;;;8.34;62.25
62011;BME280;47967;51.756;10.174;2024-02-23T12:10:29;97714.34;;;8.66;62.23
62011;BME280;47967;51.756;10.174;2024-02-23T12:14:32;97704.25;;;8.73;61.57
62011;BME280;47967;51.756;10.174;2024-02-23T12:18:34;97707.34;;;8.94;61.62
62011;BME280;47967;51.756;10.174;2024-02-23T12:22:38;97701.97;;;8.94;61.10
62011;BME280;47967;51.756;10.174;2024-02-23T12:26:42;97709.47;;;8.80;60.88
62011;BME280;47967;51.756;10.174;2024-02-23T12:30:45;97701.91;;;8.77;59.06
62011;BME280;47967;51.756;10.174;2024-02-23T12:34:48;97695.22;;;8.79;59.31
62011;BME280;47967;51.756;10.174;2024-02-23T12:38:52;97696.16;;;8.85;59.57
62011;BME280;47967;51.756;10.174;2024-02-23T12:42:55;97682.38;;;8.81;59.44
62011;BME280;47967;51.756;10.174;2024-02-23T12:46:57;97687.59;;;8.88;59.04
62011;BME280;47967;51.756;10.174;2024-02-23T12:51:00;97695.94;;;8.75;58.94
62011;BME280;47967;51.756;10.174;2024-02-23T12:55:04;97696.97;;;8.86;61.22
62011;BME280;47967;51.756;10.174;2024-02-23T12:59:06;97687.13;;;8.91;60.07
62011;BME280;47967;51.756;10.174;2024-02-23T13:03:10;97684.53;;;8.96;61.00
62011;BME280;47967;51.756;10.174;2024-02-23T13:07:13;97692.75;;;9.07;59.63
62011;BME280;47967;51.756;10.174;2024-02-23T13:11:17;97684.38;;;9.20;58.73
62011;BME280;47967;51.756;10.174;2024-02-23T13:15:19;97683.97;;;9.11;58.03
62011;BME280;47967;51.756;10.174;2024-02-23T13:19:22;97687.00;;;9.32;58.05
62011;BME280;47967;51.756;10.174;2024-02-23T13:23:25;97689.56;;;9.39;58.78
62011;BME280;47967;51.756;10.174;2024-02-23T13:27:29;97691.34;;;9.50;59.09
62011;BME280;47967;51.756;10.174;2024-02-23T13:31:31;97705.63;;;9.51;55.37
62011;BME280;47967;51.756;10.174;2024-02-23T13:35:34;97704.22;;;9.48;57.73
62011;BME280;47967;51.756;10.174;2024-02-23T13:39:37;97696.97;;;9.32;59.81
62011;BME280;47967;51.756;10.174;2024-02-23T13:43:41;97697.50;;;9.17;59.71
62011;BME280;47967;51.756;10.174;2024-02-23T13:47:44;97698.13;;;9.07;58.53
62011;BME280;47967;51.756;10.174;2024-02-23T13:51:57;97694.50;;;9.13;59.34
62011;BME280;47967;51.756;10.174;2024-02-23T13:56:00;97692.44;;;9.20;59.09
62011;BME280;47967;51.756;10.174;2024-02-23T14:00:05;97701.75;;;9.12;58.14
62011;BME280;47967;51.756;10.174;2024-02-23T14:04:13;97691.09;;;9.35;57.16
62011;BME280;47967;51.756;10.174;2024-02-23T14:08:16;97691.28;;;9.45;57.28
62011;BME280;47967;51.756;10.174;2024-02-23T14:12:19;97692.00;;;9.40;56.62
62011;BME280;47967;51.756;10.174;2024-02-23T14:16:22;97699.81;;;9.25;57.21
62011;BME280;47967;51.756;10.174;2024-02-23T14:20:25;97713.56;;;9.11;57.24
62011;BME280;47967;51.756;10.174;2024-02-23T14:24:29;97711.78;;;9.17;58.07
62011;BME280;47967;51.756;10.174;2024-02-23T14:28:31;97704.19;;;9.14;57.29
62011;BME280;47967;51.756;10.174;2024-02-23T14:32:35;97699.25;;;9.23;59.73
62011;BME280;47967;51.756;10.174;2024-02-23T14:36:38;97702.41;;;9.20;59.80
62011;BME280;47967;51.756;10.174;2024-02-23T14:40:40;97713.38;;;9.01;57.30
62011;BME280;47967;51.756;10.174;2024-02-23T14:44:43;97720.56;;;9.12;57.88
62011;BME280;47967;51.756;10.174;2024-02-23T14:48:47;97728.72;;;9.18;60.86
62011;BME280;47967;51.756;10.174;2024-02-23T14:52:50;97737.22;;;9.09;63.09
62011;BME280;47967;51.756;10.174;2024-02-23T14:56:53;97742.72;;;9.03;62.89
62011;BME280;47967;51.756;10.174;2024-02-23T15:00:55;97739.44;;;9.01;64.37
62011;BME280;47967;51.756;10.174;2024-02-23T15:04:59;97737.97;;;9.22;63.75
62011;BME280;47967;51.756;10.174;2024-02-23T15:09:02;97736.03;;;9.05;64.15
62011;BME280;47967;51.756;10.174;2024-02-23T15:13:05;97749.75;;;9.04;64.20
62011;BME280;47967;51.756;10.174;2024-02-23T15:17:08;97733.09;;;9.07;65.40
62011;BME280;47967;51.756;10.174;2024-02-23T15:21:12;97737.44;;;9.08;64.97
62011;BME280;47967;51.756;10.174;2024-02-23T15:25:16;97731.63;;;8.99;63.69
62011;BME280;47967;51.756;10.174;2024-02-23T15:29:19;97731.44;;;8.89;63.01
62011;BME280;47967;51.756;10.174;2024-02-23T15:33:21;97727.81;;;8.95;65.18
62011;BME280;47967;51.756;10.174;2024-02-23T15:37:25;97730.50;;;8.95;63.57
62011;BME280;47967;51.756;10.174;2024-02-23T15:41:28;97726.00;;;9.29;63.08
62011;BME280;47967;51.756;10.174;2024-02-23T15:45:31;97727.00;;;9.57;59.85
62011;BME280;47967;51.756;10.174;2024-02-23T15:49:33;97718.34;;;9.72;57.93
62011;BME280;47967;51.756;10.174;2024-02-23T15:53:57;97727.81;;;9.58;59.29
62011;BME280;47967;51.756;10.174;2024-02-23T15:58:00;97724.13;;;9.47;60.38
62011;BME280;47967;51.756;10.174;2024-02-23T16:02:02;97721.53;;;9.35;60.32
62011;BME280;47967;51.756;10.174;2024-02-23T16:06:05;97731.44;;;8.89;62.20
62011;BME280;47967;51.756;10.174;2024-02-23T16:10:09;97738.59;;;8.83;62.53
62011;BME280;47967;51.756;10.174;2024-02-23T16:14:14;97744.69;;;8.78;63.55
62011;BME280;47967;51.756;10.174;2024-02-23T16:18:17;97753.53;;;8.50;65.22
62011;BME280;47967;51.756;10.174;2024-02-23T16:22:20;97760.88;;;8.31;66.30
62011;BME280;47967;51.756;10.174;2024-02-23T16:26:25;97756.81;;;8.05;67.40
62011;BME280;47967;51.756;10.174;2024-02-23T16:30:28;97762.84;;;7.88;68.78
62011;BME280;47967;51.756;10.174;2024-02-23T16:34:31;97781.63;;;7.76;69.70
62011;BME280;47967;51.756;10.174;2024-02-23T16:38:35;97785.94;;;7.65;71.79
62011;BME280;47967;51.756;10.174;2024-02-23T16:42:39;97794.94;;;7.71;73.31
62011;BME280;47967;51.756;10.174;2024-02-23T16:46:44;97794.94;;;7.83;73.54
62011;BME280;47967;51.756;10.174;2024-02-23T16:50:46;97796.13;;;7.87;74.15
62011;BME280;47967;51.756;10.174;2024-02-23T16:54:49;97790.03;;;7.80;75.15
62011;BME280;47967;51.756;10.174;2024-02-23T16:58:53;97792.00;;;7.61;76.08
62011;BME280;47967;51.756;10.174;2024-02-23T17:02:56;97789.72;;;7.34;77.40
62011;BME280;47967;51.756;10.174;2024-02-23T17:06:58;97792.50;;;7.09;79.56
62011;BME280;47967;51.756;10.174;2024-02-23T17:11:02;97789.19;;;6.95;81.38
62011;BME280;47967;51.756;10.174;2024-02-23T17:15:09;97790.25;;;6.75;83.02
62011;BME280;47967;51.756;10.174;2024-02-23T17:19:12;97797.69;;;6.54;86.91
62011;BME280;47967;51.756;10.174;2024-02-23T17:23:14;97789.81;;;6.41;90.20
62011;BME280;47967;51.756;10.174;2024-02-23T17:27:17;97808.84;;;6.33;91.33
62011;BME280;47967;51.756;10.174;2024-02-23T17:31:21;97809.72;;;6.27;92.29
62011;BME280;47967;51.756;10.174;2024-02-23T17:35:23;97814.63;;;6.30;92.34
62011;BME280;47967;51.756;10.174;2024-02-23T17:39:26;97812.56;;;6.32;92.42
62011;BME280;47967;51.756;10.174;2024-02-23T17:43:28;97822.06;;;6.28;92.65
62011;BME280;47967;51.756;10.174;2024-02-23T17:47:33;97826.41;;;6.29;93.38
62011;BME280;47967;51.756;10.174;2024-02-23T17:51:35;97835.16;;;6.36;93.30
62011;BME280;47967;51.756;10.174;2024-02-23T17:55:38;97839.72;;;6.35;93.30
62011;BME280;47967;51.756;10.174;2024-02-23T17:59:41;97838.34;;;6.26;94.10
62011;BME280;47967;51.756;10.174;2024-02-23T18:03:45;97831.16;;;6.27;93.57
62011;BME280;47967;51.756;10.174;2024-02-23T18:07:48;97834.84;;;6.25;92.95
62011;BME280;47967;51.756;10.174;2024-02-23T18:11:50;97830.88;;;6.09;95.01
62011;BME280;47967;51.756;10.174;2024-02-23T18:15:53;97826.41;;;5.71;99.65
62011;BME280;47967;51.756;10.174;2024-02-23T18:19:57;97835.00;;;5.48;100.00
62011;BME280;47967;51.756;10.174;2024-02-23T18:23:59;97838.63;;;5.22;100.00
62011;BME280;47967;51.756;10.174;2024-02-23T18:28:02;97834.84;;;4.97;100.00
62011;BME280;47967;51.756;10.174;2024-02-23T18:32:05;97837.59;;;4.71;100.00
62011;BME280;47967;51.756;10.174;2024-02-23T18:36:09;97848.94;;;4.59;100.00
62011;BME280;47967;51.756;10.174;2024-02-23T18:40:15;97846.69;;;4.43;100.00
62011;BME280;47967;51.756;10.174;2024-02-23T18:44:17;97849.19;;;4.44;100.00
62011;BME280;47967;51.756;10.174;2024-02-23T18:48:20;97858.22;;;4.37;100.00
62011;BME280;47967;51.756;10.174;2024-02-23T18:52:24;97858.63;;;4.27;100.00
62011;BME280;47967;51.756;10.174;2024-02-23T18:56:26;97860.72;;;4.11;100.00
62011;BME280;47967;51.756;10.174;2024-02-23T19:00:30;97859.47;;;4.00;100.00
62011;BME280;47967;51.756;10.174;2024-02-23T19:04:33;97875.25;;;3.95;100.00
62011;BME280;47967;51.756;10.174;2024-02-23T19:08:36;97871.38;;;3.91;100.00
62011;BME280;47967;51.756;10.174;2024-02-23T19:12:39;97876.72;;;3.84;100.00
62011;BME280;47967;51.756;10.174;2024-02-23T19:16:43;97881.22;;;3.77;100.00
62011;BME280;47967;51.756;10.174;2024-02-23T19:20:45;97883.44;;;3.80;100.00
62011;BME280;47967;51.756;10.174;2024-02-23T19:24:49;97887.78;;;3.81;100.00
62011;BME280;47967;51.756;10.174;2024-02-23T19:28:52;97878.94;;;3.74;100.00
62011;BME280;47967;51.756;10.174;2024-02-23T19:32:55;97872.56;;;3.75;100.00
62011;BME280;47967;51.756;10.174;2024-02-23T19:36:57;97877.06;;;3.68;100.00
62011;BME280;47967;51.756;10.174;2024-02-23T19:41:03;97876.41;;;3.46;100.00
62011;BME280;47967;51.756;10.174;2024-02-23T19:45:06;97876.97;;;3.21;100.00
62011;BME280;47967;51.756;10.174;2024-02-23T19:49:08;97876.97;;;3.28;100.00
62011;BME280;47967;51.756;10.174;2024-02-23T19:53:11;97871.88;;;3.33;100.00
62011;BME280;47967;51.756;10.174;2024-02-23T19:57:15;97877.41;;;3.38;100.00
62011;BME280;47967;51.756;10.174;2024-02-23T20:01:18;97877.78;;;3.28;100.00
62011;BME280;47967;51.756;10.174;2024-02-23T20:05:21;97881.25;;;3.22;100.00
62011;BME280;47967;51.756;10.174;2024-02-23T20:09:26;97874.06;;;3.16;100.00
62011;BME280;47967;51.756;10.174;2024-02-23T20:13:31;97880.38;;;3.08;100.00
62011;BME280;47967;51.756;10.174;2024-02-23T20:17:33;97890.41;;;2.99;100.00
62011;BME280;47967;51.756;10.174;2024-02-23T20:21:38;97888.53;;;2.93;100.00
62011;BME280;47967;51.756;10.174;2024-02-23T20:25:41;97894.03;;;2.92;100.00
62011;BME280;47967;51.756;10.174;2024-02-23T20:29:45;97896.09;;;2.90;100.00
62011;BME280;47967;51.756;10.174;2024-02-23T20:33:47;97893.06;;;2.99;100.00
62011;BME280;47967;51.756;10.174;2024-02-23T20:37:50;97894.78;;;3.14;100.00
62011;BME280;47967;51.756;10.174;2024-02-23T20:41:53;97891.94;;;3.29;100.00
62011;BME280;47967;51.756;10.174;2024-02-23T20:45:57;97900.56;;;3.31;100.00
62011;BME280;47967;51.756;10.174;2024-02-23T20:50:00;97892.38;;;3.32;100.00
62011;BME280;47967;51.756;10.174;2024-02-23T20:54:02;97892.84;;;3.49;100.00
62011;BME280;47967;51.756;10.174;2024-02-23T20:58:05;97894.63;;;3.29;100.00
62011;BME280;47967;51.756;10.174;2024-02-23T21:02:09;97888.19;;;3.10;100.00
62011;BME280;47967;51.756;10.174;2024-02-23T21:06:11;97890.34;;;2.86;100.00
62011;BME280;47967;51.756;10.174;2024-02-23T21:10:14;97887.38;;;2.67;100.00
62011;BME280;47967;51.756;10.174;2024-02-23T21:14:17;97900.41;;;2.55;100.00
62011;BME280;47967;51.756;10.174;2024-02-23T21:18:21;97880.34;;;2.60;100.00
62011;BME280;47967;51.756;10.174;2024-02-23T21:22:24;97881.34;;;2.59;100.00
62011;BME280;47967;51.756;10.174;2024-02-23T21:26:26;97889.00;;;2.33;100.00
62011;BME280;47967;51.756;10.174;2024-02-23T21:30:29;97890.56;;;2.56;100.00
62011;BME280;47967;51.756;10.174;2024-02-23T21:34:33;97891.66;;;2.33;100.00
62011;BME280;47967;51.756;10.174;2024-02-23T21:38:35;97883.59;;;1.98;100.00
62011;BME280;47967;51.756;10.174;2024-02-23T21:42:38;97887.81;;;1.92;100.00
62011;BME280;47967;51.756;10.174;2024-02-23T21:46:40;97889.56;;;2.00;100.00
62011;BME280;47967;51.756;10.174;2024-02-23T21:50:44;97888.94;;;2.05;100.00
62011;BME280;47967;51.756;10.174;2024-02-23T21:54:47;97895.13;;;2.05;100.00
62011;BME280;47967;51.756;10.174;2024-02-23T21:58:49;97900.31;;;2.14;100.00
